Anselmo, Nebraska
Current Conditions -  °F | °C
As of 5:53 PM on Friday 21 Nov 2014 (Local Time) from KBBW Reporting Station
Broken Clouds Broken Clouds  
Wind Chill: 41°   Ceiling: 12000
Heat Index: 46°   Visibility: 10mi
Dew Point: 31°   Wind: 10mph
Humidity: 56%   Direction: 170°S
Pressure: 29.92"   Gusts: 23mph
Location:  41.62°N, 99.87°W
Report Text: KBBW 212353Z AUTO 17009G20KT 10SM BKN120 08/M01 A2992 RMK AO2 SLP148 T00781006 10117 20067 50003 PWINO $
Loading
Personal Weather Stations






























Interactive Weather Map New forecast layout! Learn more

10-Day Weather Forecast

Advertisements
Track Severe Weather on mobile